sensor_id;sensor_type;location;lat;lon;timestamp;P1;durP1;ratioP1;P2;durP2;ratioP2
42714;SDS011;28351;51.480;5.706;2022-12-18T00:02:41;36.42;;;14.27;;
42714;SDS011;28351;51.480;5.706;2022-12-18T00:05:13;40.90;;;14.02;;
42714;SDS011;28351;51.480;5.706;2022-12-18T00:10:51;36.67;;;13.93;;
42714;SDS011;28351;51.480;5.706;2022-12-18T00:13:21;34.83;;;14.15;;
42714;SDS011;28351;51.480;5.706;2022-12-18T00:19:02;36.00;;;12.73;;
42714;SDS011;28351;51.480;5.706;2022-12-18T00:21:43;31.23;;;12.23;;
42714;SDS011;28351;51.480;5.706;2022-12-18T00:24:11;30.92;;;9.90;;
42714;SDS011;28351;51.480;5.706;2022-12-18T00:26:42;32.60;;;13.43;;
42714;SDS011;28351;51.480;5.706;2022-12-18T00:29:12;33.92;;;12.25;;
42714;SDS011;28351;51.480;5.706;2022-12-18T00:31:57;32.23;;;12.13;;
42714;SDS011;28351;51.480;5.706;2022-12-18T00:34:59;29.63;;;12.18;;
42714;SDS011;28351;51.480;5.706;2022-12-18T00:37:43;30.90;;;11.23;;
42714;SDS011;28351;51.480;5.706;2022-12-18T00:40:31;26.42;;;10.70;;
42714;SDS011;28351;51.480;5.706;2022-12-18T00:43:02;34.80;;;12.23;;
42714;SDS011;28351;51.480;5.706;2022-12-18T00:45:44;27.58;;;11.68;;
42714;SDS011;28351;51.480;5.706;2022-12-18T00:50:56;38.03;;;13.68;;
42714;SDS011;28351;51.480;5.706;2022-12-18T00:53:25;40.10;;;15.52;;
42714;SDS011;28351;51.480;5.706;2022-12-18T00:58:50;36.80;;;14.65;;
42714;SDS011;28351;51.480;5.706;2022-12-18T01:01:21;35.25;;;14.02;;
42714;SDS011;28351;51.480;5.706;2022-12-18T01:04:02;30.20;;;15.25;;
42714;SDS011;28351;51.480;5.706;2022-12-18T01:06:30;33.65;;;13.85;;
42714;SDS011;28351;51.480;5.706;2022-12-18T01:09:35;32.63;;;13.57;;
42714;SDS011;28351;51.480;5.706;2022-12-18T01:12:19;42.33;;;15.45;;
42714;SDS011;28351;51.480;5.706;2022-12-18T01:14:57;36.42;;;14.23;;
42714;SDS011;28351;51.480;5.706;2022-12-18T01:17:38;37.05;;;13.32;;
42714;SDS011;28351;51.480;5.706;2022-12-18T01:20:40;37.35;;;13.77;;
42714;SDS011;28351;51.480;5.706;2022-12-18T01:23:09;36.58;;;13.27;;
42714;SDS011;28351;51.480;5.706;2022-12-18T01:25:38;29.73;;;11.82;;
42714;SDS011;28351;51.480;5.706;2022-12-18T01:28:06;30.75;;;13.38;;
42714;SDS011;28351;51.480;5.706;2022-12-18T01:30:53;29.85;;;12.50;;
42714;SDS011;28351;51.480;5.706;2022-12-18T01:33:22;21.10;;;9.02;;
42714;SDS011;28351;51.480;5.706;2022-12-18T01:35:50;21.88;;;10.07;;
42714;SDS011;28351;51.480;5.706;2022-12-18T01:38:21;40.30;;;11.60;;
42714;SDS011;28351;51.480;5.706;2022-12-18T01:40:48;33.13;;;11.80;;
42714;SDS011;28351;51.480;5.706;2022-12-18T01:43:40;27.20;;;10.13;;
42714;SDS011;28351;51.480;5.706;2022-12-18T01:46:18;28.92;;;10.73;;
42714;SDS011;28351;51.480;5.706;2022-12-18T01:48:49;25.02;;;10.65;;
42714;SDS011;28351;51.480;5.706;2022-12-18T01:51:19;29.17;;;10.70;;
42714;SDS011;28351;51.480;5.706;2022-12-18T01:53:51;24.08;;;11.93;;
42714;SDS011;28351;51.480;5.706;2022-12-18T01:59:41;28.73;;;10.60;;
42714;SDS011;28351;51.480;5.706;2022-12-18T02:02:24;35.17;;;12.90;;
42714;SDS011;28351;51.480;5.706;2022-12-18T02:05:06;32.90;;;12.18;;
42714;SDS011;28351;51.480;5.706;2022-12-18T02:16:29;27.17;;;12.20;;
42714;SDS011;28351;51.480;5.706;2022-12-18T02:28:30;29.00;;;12.35;;
42714;SDS011;28351;51.480;5.706;2022-12-18T02:31:02;29.70;;;12.60;;
42714;SDS011;28351;51.480;5.706;2022-12-18T02:34:10;24.17;;;11.20;;
42714;SDS011;28351;51.480;5.706;2022-12-18T02:36:41;28.05;;;11.77;;
42714;SDS011;28351;51.480;5.706;2022-12-18T02:39:11;29.80;;;11.77;;
42714;SDS011;28351;51.480;5.706;2022-12-18T02:41:47;29.95;;;12.23;;
42714;SDS011;28351;51.480;5.706;2022-12-18T02:51:11;26.80;;;11.95;;
42714;SDS011;28351;51.480;5.706;2022-12-18T02:53:53;29.83;;;12.57;;
42714;SDS011;28351;51.480;5.706;2022-12-18T02:56:29;27.70;;;10.95;;
42714;SDS011;28351;51.480;5.706;2022-12-18T02:59:19;26.17;;;10.35;;
42714;SDS011;28351;51.480;5.706;2022-12-18T03:04:58;23.08;;;10.27;;
42714;SDS011;28351;51.480;5.706;2022-12-18T03:10:30;33.15;;;12.30;;
42714;SDS011;28351;51.480;5.706;2022-12-18T03:13:10;24.30;;;9.43;;
42714;SDS011;28351;51.480;5.706;2022-12-18T03:15:53;25.98;;;11.68;;
42714;SDS011;28351;51.480;5.706;2022-12-18T03:18:24;26.75;;;11.63;;
42714;SDS011;28351;51.480;5.706;2022-12-18T03:21:12;30.15;;;10.93;;
42714;SDS011;28351;51.480;5.706;2022-12-18T03:23:43;27.08;;;11.07;;
42714;SDS011;28351;51.480;5.706;2022-12-18T03:26:21;23.77;;;10.32;;
42714;SDS011;28351;51.480;5.706;2022-12-18T03:29:16;24.70;;;11.07;;
42714;SDS011;28351;51.480;5.706;2022-12-18T03:31:51;30.90;;;11.25;;
42714;SDS011;28351;51.480;5.706;2022-12-18T03:34:35;27.33;;;10.85;;
42714;SDS011;28351;51.480;5.706;2022-12-18T03:37:05;27.40;;;10.57;;
42714;SDS011;28351;51.480;5.706;2022-12-18T03:39:34;27.63;;;11.10;;
42714;SDS011;28351;51.480;5.706;2022-12-18T03:45:27;28.73;;;11.85;;
42714;SDS011;28351;51.480;5.706;2022-12-18T03:48:18;27.58;;;9.32;;
42714;SDS011;28351;51.480;5.706;2022-12-18T03:51:10;20.80;;;10.48;;
42714;SDS011;28351;51.480;5.706;2022-12-18T03:54:02;23.90;;;10.85;;
42714;SDS011;28351;51.480;5.706;2022-12-18T03:56:36;23.58;;;10.27;;
42714;SDS011;28351;51.480;5.706;2022-12-18T03:59:18;28.02;;;11.27;;
42714;SDS011;28351;51.480;5.706;2022-12-18T04:01:46;26.67;;;12.02;;
42714;SDS011;28351;51.480;5.706;2022-12-18T04:04:15;22.20;;;9.25;;
42714;SDS011;28351;51.480;5.706;2022-12-18T04:06:52;21.50;;;8.38;;
42714;SDS011;28351;51.480;5.706;2022-12-18T04:09:19;19.40;;;9.48;;
42714;SDS011;28351;51.480;5.706;2022-12-18T04:11:47;21.75;;;10.38;;
42714;SDS011;28351;51.480;5.706;2022-12-18T04:14:14;21.20;;;8.45;;
42714;SDS011;28351;51.480;5.706;2022-12-18T04:17:02;24.27;;;10.15;;
42714;SDS011;28351;51.480;5.706;2022-12-18T04:19:29;27.67;;;9.48;;
42714;SDS011;28351;51.480;5.706;2022-12-18T04:22:04;22.67;;;10.50;;
42714;SDS011;28351;51.480;5.706;2022-12-18T04:24:31;21.63;;;9.10;;
42714;SDS011;28351;51.480;5.706;2022-12-18T04:26:58;18.77;;;8.75;;
42714;SDS011;28351;51.480;5.706;2022-12-18T04:29:42;22.92;;;9.25;;
42714;SDS011;28351;51.480;5.706;2022-12-18T04:32:17;23.30;;;9.80;;
42714;SDS011;28351;51.480;5.706;2022-12-18T04:34:45;22.48;;;9.57;;
42714;SDS011;28351;51.480;5.706;2022-12-18T04:39:38;20.88;;;9.68;;
42714;SDS011;28351;51.480;5.706;2022-12-18T04:42:11;21.48;;;9.00;;
42714;SDS011;28351;51.480;5.706;2022-12-18T04:44:36;22.58;;;9.98;;
42714;SDS011;28351;51.480;5.706;2022-12-18T04:47:02;19.23;;;9.40;;
42714;SDS011;28351;51.480;5.706;2022-12-18T04:49:28;14.65;;;7.88;;
42714;SDS011;28351;51.480;5.706;2022-12-18T04:51:54;23.60;;;8.93;;
42714;SDS011;28351;51.480;5.706;2022-12-18T04:54:27;20.88;;;8.95;;
42714;SDS011;28351;51.480;5.706;2022-12-18T04:56:57;14.35;;;7.15;;
42714;SDS011;28351;51.480;5.706;2022-12-18T04:59:23;22.20;;;9.25;;
42714;SDS011;28351;51.480;5.706;2022-12-18T05:01:49;19.60;;;7.32;;
42714;SDS011;28351;51.480;5.706;2022-12-18T05:04:16;20.67;;;8.73;;
42714;SDS011;28351;51.480;5.706;2022-12-18T05:06:42;18.75;;;10.15;;
42714;SDS011;28351;51.480;5.706;2022-12-18T05:09:08;24.67;;;9.20;;
42714;SDS011;28351;51.480;5.706;2022-12-18T05:11:35;21.35;;;9.18;;
42714;SDS011;28351;51.480;5.706;2022-12-18T05:14:12;13.67;;;7.27;;
42714;SDS011;28351;51.480;5.706;2022-12-18T05:16:38;20.33;;;8.45;;
42714;SDS011;28351;51.480;5.706;2022-12-18T05:19:05;18.13;;;8.45;;
42714;SDS011;28351;51.480;5.706;2022-12-18T05:21:48;12.57;;;6.20;;
42714;SDS011;28351;51.480;5.706;2022-12-18T05:24:14;20.65;;;10.23;;
42714;SDS011;28351;51.480;5.706;2022-12-18T05:26:40;20.90;;;9.98;;
42714;SDS011;28351;51.480;5.706;2022-12-18T05:29:05;19.40;;;9.18;;
42714;SDS011;28351;51.480;5.706;2022-12-18T05:31:40;20.83;;;9.20;;
42714;SDS011;28351;51.480;5.706;2022-12-18T05:34:06;21.65;;;9.02;;
42714;SDS011;28351;51.480;5.706;2022-12-18T05:36:31;19.08;;;7.80;;
42714;SDS011;28351;51.480;5.706;2022-12-18T05:38:57;21.25;;;7.88;;
42714;SDS011;28351;51.480;5.706;2022-12-18T05:41:23;11.98;;;6.57;;
42714;SDS011;28351;51.480;5.706;2022-12-18T05:43:49;14.02;;;7.07;;
42714;SDS011;28351;51.480;5.706;2022-12-18T05:46:15;17.38;;;9.75;;
42714;SDS011;28351;51.480;5.706;2022-12-18T05:48:51;17.20;;;8.43;;
42714;SDS011;28351;51.480;5.706;2022-12-18T05:51:17;24.27;;;9.20;;
42714;SDS011;28351;51.480;5.706;2022-12-18T05:53:45;18.88;;;8.63;;
42714;SDS011;28351;51.480;5.706;2022-12-18T05:56:13;20.40;;;8.65;;
42714;SDS011;28351;51.480;5.706;2022-12-18T05:58:40;19.00;;;9.73;;
42714;SDS011;28351;51.480;5.706;2022-12-18T06:01:17;22.35;;;9.02;;
42714;SDS011;28351;51.480;5.706;2022-12-18T06:06:17;20.42;;;7.70;;
42714;SDS011;28351;51.480;5.706;2022-12-18T06:08:45;21.95;;;9.63;;
42714;SDS011;28351;51.480;5.706;2022-12-18T06:11:13;28.05;;;10.65;;
42714;SDS011;28351;51.480;5.706;2022-12-18T06:13:59;25.00;;;10.25;;
42714;SDS011;28351;51.480;5.706;2022-12-18T06:16:27;23.25;;;9.75;;
42714;SDS011;28351;51.480;5.706;2022-12-18T06:18:57;25.17;;;11.35;;
42714;SDS011;28351;51.480;5.706;2022-12-18T06:21:23;23.15;;;10.35;;
42714;SDS011;28351;51.480;5.706;2022-12-18T06:23:49;19.70;;;9.80;;
42714;SDS011;28351;51.480;5.706;2022-12-18T06:26:15;14.30;;;7.45;;
42714;SDS011;28351;51.480;5.706;2022-12-18T06:28:46;14.98;;;8.60;;
42714;SDS011;28351;51.480;5.706;2022-12-18T06:31:15;15.70;;;7.45;;
42714;SDS011;28351;51.480;5.706;2022-12-18T06:33:41;15.20;;;7.05;;
42714;SDS011;28351;51.480;5.706;2022-12-18T06:36:19;25.35;;;9.32;;
42714;SDS011;28351;51.480;5.706;2022-12-18T06:38:46;15.15;;;8.52;;
42714;SDS011;28351;51.480;5.706;2022-12-18T06:41:15;21.73;;;7.75;;
42714;SDS011;28351;51.480;5.706;2022-12-18T06:43:43;12.43;;;6.97;;
42714;SDS011;28351;51.480;5.706;2022-12-18T06:46:09;22.55;;;11.07;;
42714;SDS011;28351;51.480;5.706;2022-12-18T06:48:35;18.25;;;8.88;;
42714;SDS011;28351;51.480;5.706;2022-12-18T06:51:01;10.55;;;6.45;;
42714;SDS011;28351;51.480;5.706;2022-12-18T06:53:28;18.80;;;8.55;;
42714;SDS011;28351;51.480;5.706;2022-12-18T06:56:05;19.88;;;10.20;;
42714;SDS011;28351;51.480;5.706;2022-12-18T06:58:34;22.55;;;9.98;;
42714;SDS011;28351;51.480;5.706;2022-12-18T07:01:07;13.70;;;7.72;;
42714;SDS011;28351;51.480;5.706;2022-12-18T07:03:35;21.30;;;8.43;;
42714;SDS011;28351;51.480;5.706;2022-12-18T07:06:01;21.77;;;8.88;;
42714;SDS011;28351;51.480;5.706;2022-12-18T07:08:29;16.55;;;8.02;;
42714;SDS011;28351;51.480;5.706;2022-12-18T07:10:55;20.52;;;9.40;;
42714;SDS011;28351;51.480;5.706;2022-12-18T07:13:27;23.08;;;9.63;;
42714;SDS011;28351;51.480;5.706;2022-12-18T07:16:03;24.58;;;9.73;;
42714;SDS011;28351;51.480;5.706;2022-12-18T07:18:32;23.25;;;10.65;;
42714;SDS011;28351;51.480;5.706;2022-12-18T07:21:08;19.98;;;10.10;;
42714;SDS011;28351;51.480;5.706;2022-12-18T07:23:35;18.13;;;10.45;;
42714;SDS011;28351;51.480;5.706;2022-12-18T07:26:03;19.60;;;7.22;;
42714;SDS011;28351;51.480;5.706;2022-12-18T07:28:31;10.15;;;6.28;;
42714;SDS011;28351;51.480;5.706;2022-12-18T07:30:58;24.05;;;9.55;;
42714;SDS011;28351;51.480;5.706;2022-12-18T07:33:27;18.88;;;8.55;;
42714;SDS011;28351;51.480;5.706;2022-12-18T07:35:53;7.78;;;4.63;;
42714;SDS011;28351;51.480;5.706;2022-12-18T07:38:20;11.80;;;5.25;;
42714;SDS011;28351;51.480;5.706;2022-12-18T07:40:46;21.67;;;8.40;;
42714;SDS011;28351;51.480;5.706;2022-12-18T07:43:11;19.80;;;6.75;;
42714;SDS011;28351;51.480;5.706;2022-12-18T07:45:44;23.42;;;8.75;;
42714;SDS011;28351;51.480;5.706;2022-12-18T07:48:12;26.05;;;9.15;;
42714;SDS011;28351;51.480;5.706;2022-12-18T07:50:37;24.27;;;9.65;;
42714;SDS011;28351;51.480;5.706;2022-12-18T07:59:51;22.90;;;9.45;;
42714;SDS011;28351;51.480;5.706;2022-12-18T08:02:20;23.58;;;10.65;;
42714;SDS011;28351;51.480;5.706;2022-12-18T08:04:45;22.15;;;9.95;;
42714;SDS011;28351;51.480;5.706;2022-12-18T08:11:05;17.60;;;6.97;;
42714;SDS011;28351;51.480;5.706;2022-12-18T08:13:31;15.05;;;8.05;;
42714;SDS011;28351;51.480;5.706;2022-12-18T08:16:03;24.80;;;9.50;;
42714;SDS011;28351;51.480;5.706;2022-12-18T08:18:51;16.52;;;9.27;;
42714;SDS011;28351;51.480;5.706;2022-12-18T08:21:22;20.50;;;8.32;;
42714;SDS011;28351;51.480;5.706;2022-12-18T08:23:51;25.55;;;9.95;;
42714;SDS011;28351;51.480;5.706;2022-12-18T08:26:19;22.07;;;9.77;;
42714;SDS011;28351;51.480;5.706;2022-12-18T08:28:45;22.25;;;8.55;;
42714;SDS011;28351;51.480;5.706;2022-12-18T08:31:11;20.20;;;9.85;;
42714;SDS011;28351;51.480;5.706;2022-12-18T08:33:40;17.63;;;9.38;;
42714;SDS011;28351;51.480;5.706;2022-12-18T08:36:08;18.13;;;8.60;;
42714;SDS011;28351;51.480;5.706;2022-12-18T08:38:57;25.95;;;10.85;;
42714;SDS011;28351;51.480;5.706;2022-12-18T08:41:22;12.27;;;7.55;;
42714;SDS011;28351;51.480;5.706;2022-12-18T08:43:48;14.10;;;6.05;;
42714;SDS011;28351;51.480;5.706;2022-12-18T08:46:34;13.02;;;5.55;;
42714;SDS011;28351;51.480;5.706;2022-12-18T08:49:02;19.15;;;9.50;;
42714;SDS011;28351;51.480;5.706;2022-12-18T08:51:28;12.55;;;6.10;;
42714;SDS011;28351;51.480;5.706;2022-12-18T08:53:54;28.95;;;11.02;;
42714;SDS011;28351;51.480;5.706;2022-12-18T08:56:20;13.32;;;7.70;;
42714;SDS011;28351;51.480;5.706;2022-12-18T08:58:46;19.17;;;8.68;;
42714;SDS011;28351;51.480;5.706;2022-12-18T09:01:18;33.60;;;12.18;;
42714;SDS011;28351;51.480;5.706;2022-12-18T09:03:44;25.95;;;10.82;;
42714;SDS011;28351;51.480;5.706;2022-12-18T09:06:12;9.52;;;5.93;;
42714;SDS011;28351;51.480;5.706;2022-12-18T09:08:40;18.10;;;8.20;;
42714;SDS011;28351;51.480;5.706;2022-12-18T09:11:11;19.05;;;7.65;;
42714;SDS011;28351;51.480;5.706;2022-12-18T09:13:50;27.90;;;8.82;;
42714;SDS011;28351;51.480;5.706;2022-12-18T09:16:32;26.33;;;10.90;;
42714;SDS011;28351;51.480;5.706;2022-12-18T09:18:59;21.08;;;10.60;;
42714;SDS011;28351;51.480;5.706;2022-12-18T09:21:27;14.05;;;7.28;;
42714;SDS011;28351;51.480;5.706;2022-12-18T09:23:55;14.77;;;6.78;;
42714;SDS011;28351;51.480;5.706;2022-12-18T09:26:21;22.65;;;9.65;;
42714;SDS011;28351;51.480;5.706;2022-12-18T09:28:57;33.28;;;12.73;;
42714;SDS011;28351;51.480;5.706;2022-12-18T09:34:16;15.40;;;8.10;;
42714;SDS011;28351;51.480;5.706;2022-12-18T09:36:43;15.02;;;8.05;;
42714;SDS011;28351;51.480;5.706;2022-12-18T09:39:08;14.73;;;6.78;;
42714;SDS011;28351;51.480;5.706;2022-12-18T09:44:31;19.27;;;8.50;;
42714;SDS011;28351;51.480;5.706;2022-12-18T09:49:44;21.65;;;9.13;;
42714;SDS011;28351;51.480;5.706;2022-12-18T09:52:19;13.00;;;7.15;;
42714;SDS011;28351;51.480;5.706;2022-12-18T09:54:52;19.98;;;9.43;;
42714;SDS011;28351;51.480;5.706;2022-12-18T09:57:22;13.60;;;7.47;;
42714;SDS011;28351;51.480;5.706;2022-12-18T09:59:54;23.23;;;9.13;;
42714;SDS011;28351;51.480;5.706;2022-12-18T10:02:29;18.20;;;7.72;;
42714;SDS011;28351;51.480;5.706;2022-12-18T10:05:13;22.83;;;11.07;;
42714;SDS011;28351;51.480;5.706;2022-12-18T10:07:50;24.08;;;10.18;;
42714;SDS011;28351;51.480;5.706;2022-12-18T10:14:14;19.52;;;9.98;;
42714;SDS011;28351;51.480;5.706;2022-12-18T10:26:43;26.73;;;11.30;;
42714;SDS011;28351;51.480;5.706;2022-12-18T10:29:22;24.48;;;10.55;;
42714;SDS011;28351;51.480;5.706;2022-12-18T10:31:51;21.00;;;8.98;;
42714;SDS011;28351;51.480;5.706;2022-12-18T10:34:55;21.90;;;9.95;;
42714;SDS011;28351;51.480;5.706;2022-12-18T10:37:29;21.23;;;9.63;;
42714;SDS011;28351;51.480;5.706;2022-12-18T10:40:23;14.07;;;7.38;;
42714;SDS011;28351;51.480;5.706;2022-12-18T10:43:11;17.00;;;7.88;;
42714;SDS011;28351;51.480;5.706;2022-12-18T10:45:39;23.95;;;7.70;;
42714;SDS011;28351;51.480;5.706;2022-12-18T10:48:19;19.40;;;7.38;;
42714;SDS011;28351;51.480;5.706;2022-12-18T10:50:47;10.80;;;7.07;;
42714;SDS011;28351;51.480;5.706;2022-12-18T10:53:22;14.10;;;6.95;;
42714;SDS011;28351;51.480;5.706;2022-12-18T10:55:50;18.35;;;7.38;;
42714;SDS011;28351;51.480;5.706;2022-12-18T10:58:48;14.45;;;7.93;;
42714;SDS011;28351;51.480;5.706;2022-12-18T11:01:45;19.25;;;9.07;;
42714;SDS011;28351;51.480;5.706;2022-12-18T11:04:21;14.07;;;4.18;;
42714;SDS011;28351;51.480;5.706;2022-12-18T11:07:14;19.30;;;7.82;;
42714;SDS011;28351;51.480;5.706;2022-12-18T11:09:40;20.48;;;9.80;;
42714;SDS011;28351;51.480;5.706;2022-12-18T11:12:18;20.67;;;10.00;;
42714;SDS011;28351;51.480;5.706;2022-12-18T11:23:28;20.50;;;9.63;;
42714;SDS011;28351;51.480;5.706;2022-12-18T11:25:57;22.80;;;10.57;;
42714;SDS011;28351;51.480;5.706;2022-12-18T11:28:41;25.52;;;11.32;;
42714;SDS011;28351;51.480;5.706;2022-12-18T11:31:15;23.98;;;9.68;;
42714;SDS011;28351;51.480;5.706;2022-12-18T11:33:46;17.88;;;8.27;;
42714;SDS011;28351;51.480;5.706;2022-12-18T11:36:17;15.65;;;7.75;;
42714;SDS011;28351;51.480;5.706;2022-12-18T11:38:44;19.63;;;8.80;;
42714;SDS011;28351;51.480;5.706;2022-12-18T11:41:30;22.83;;;11.43;;
42714;SDS011;28351;51.480;5.706;2022-12-18T11:44:26;19.45;;;9.13;;
42714;SDS011;28351;51.480;5.706;2022-12-18T11:47:00;27.67;;;11.05;;
42714;SDS011;28351;51.480;5.706;2022-12-18T11:49:34;13.05;;;6.55;;
42714;SDS011;28351;51.480;5.706;2022-12-18T11:52:21;16.92;;;6.65;;
42714;SDS011;28351;51.480;5.706;2022-12-18T11:54:53;15.27;;;6.45;;
42714;SDS011;28351;51.480;5.706;2022-12-18T12:00:15;23.25;;;8.85;;
42714;SDS011;28351;51.480;5.706;2022-12-18T12:22:40;22.25;;;9.95;;
42714;SDS011;28351;51.480;5.706;2022-12-18T12:25:31;24.45;;;10.60;;
42714;SDS011;28351;51.480;5.706;2022-12-18T12:36:29;18.98;;;9.55;;
42714;SDS011;28351;51.480;5.706;2022-12-18T12:38:59;18.77;;;9.95;;
42714;SDS011;28351;51.480;5.706;2022-12-18T12:41:30;20.23;;;10.18;;
42714;SDS011;28351;51.480;5.706;2022-12-18T12:44:19;19.60;;;9.30;;
42714;SDS011;28351;51.480;5.706;2022-12-18T12:46:50;21.90;;;10.38;;
42714;SDS011;28351;51.480;5.706;2022-12-18T12:49:20;19.63;;;10.38;;
42714;SDS011;28351;51.480;5.706;2022-12-18T12:52:10;22.23;;;10.02;;
42714;SDS011;28351;51.480;5.706;2022-12-18T12:54:39;21.42;;;9.90;;
42714;SDS011;28351;51.480;5.706;2022-12-18T12:57:30;25.42;;;9.70;;
42714;SDS011;28351;51.480;5.706;2022-12-18T13:02:42;25.95;;;10.27;;
42714;SDS011;28351;51.480;5.706;2022-12-18T13:05:29;26.20;;;10.18;;
42714;SDS011;28351;51.480;5.706;2022-12-18T13:08:24;23.67;;;10.10;;
42714;SDS011;28351;51.480;5.706;2022-12-18T13:10:54;24.02;;;10.68;;
42714;SDS011;28351;51.480;5.706;2022-12-18T13:13:52;18.98;;;9.90;;
42714;SDS011;28351;51.480;5.706;2022-12-18T13:18:54;20.83;;;9.95;;
42714;SDS011;28351;51.480;5.706;2022-12-18T13:21:25;20.95;;;9.50;;
42714;SDS011;28351;51.480;5.706;2022-12-18T13:23:54;24.63;;;9.82;;
42714;SDS011;28351;51.480;5.706;2022-12-18T13:30:11;23.67;;;11.07;;
42714;SDS011;28351;51.480;5.706;2022-12-18T13:36:25;19.63;;;9.82;;
42714;SDS011;28351;51.480;5.706;2022-12-18T13:49:42;17.52;;;9.13;;
42714;SDS011;28351;51.480;5.706;2022-12-18T13:58:42;21.52;;;9.95;;
42714;SDS011;28351;51.480;5.706;2022-12-18T14:04:33;19.38;;;9.05;;
42714;SDS011;28351;51.480;5.706;2022-12-18T14:07:15;24.23;;;10.48;;
42714;SDS011;28351;51.480;5.706;2022-12-18T14:10:28;23.30;;;10.38;;
42714;SDS011;28351;51.480;5.706;2022-12-18T14:19:23;20.95;;;10.25;;
42714;SDS011;28351;51.480;5.706;2022-12-18T14:21:49;23.02;;;9.73;;
42714;SDS011;28351;51.480;5.706;2022-12-18T14:24:19;24.67;;;10.25;;
42714;SDS011;28351;51.480;5.706;2022-12-18T14:27:12;27.98;;;11.20;;
42714;SDS011;28351;51.480;5.706;2022-12-18T14:29:45;26.70;;;10.75;;
42714;SDS011;28351;51.480;5.706;2022-12-18T14:32:12;23.88;;;10.35;;
42714;SDS011;28351;51.480;5.706;2022-12-18T14:34:48;27.67;;;10.77;;
42714;SDS011;28351;51.480;5.706;2022-12-18T14:37:26;21.67;;;10.20;;
42714;SDS011;28351;51.480;5.706;2022-12-18T14:42:23;21.23;;;10.05;;
42714;SDS011;28351;51.480;5.706;2022-12-18T14:45:10;27.75;;;11.50;;
42714;SDS011;28351;51.480;5.706;2022-12-18T14:51:18;29.77;;;10.93;;
42714;SDS011;28351;51.480;5.706;2022-12-18T14:54:31;23.83;;;10.13;;
42714;SDS011;28351;51.480;5.706;2022-12-18T15:03:45;24.73;;;10.52;;
42714;SDS011;28351;51.480;5.706;2022-12-18T15:06:25;22.40;;;9.55;;
42714;SDS011;28351;51.480;5.706;2022-12-18T15:08:54;23.77;;;9.48;;
42714;SDS011;28351;51.480;5.706;2022-12-18T15:11:33;25.38;;;10.63;;
42714;SDS011;28351;51.480;5.706;2022-12-18T15:17:00;22.63;;;9.90;;
42714;SDS011;28351;51.480;5.706;2022-12-18T15:22:55;23.42;;;9.43;;
42714;SDS011;28351;51.480;5.706;2022-12-18T15:28:53;19.63;;;9.45;;
42714;SDS011;28351;51.480;5.706;2022-12-18T15:31:31;17.70;;;8.75;;
42714;SDS011;28351;51.480;5.706;2022-12-18T15:43:30;21.67;;;9.32;;
42714;SDS011;28351;51.480;5.706;2022-12-18T16:02:46;26.08;;;9.50;;
42714;SDS011;28351;51.480;5.706;2022-12-18T16:05:16;19.73;;;8.75;;
42714;SDS011;28351;51.480;5.706;2022-12-18T16:08:03;23.08;;;8.75;;
42714;SDS011;28351;51.480;5.706;2022-12-18T16:10:35;24.00;;;9.48;;
42714;SDS011;28351;51.480;5.706;2022-12-18T16:13:02;19.38;;;8.93;;
42714;SDS011;28351;51.480;5.706;2022-12-18T16:15:30;19.05;;;8.43;;
42714;SDS011;28351;51.480;5.706;2022-12-18T16:18:03;20.13;;;8.68;;
42714;SDS011;28351;51.480;5.706;2022-12-18T16:20:29;18.05;;;8.77;;
42714;SDS011;28351;51.480;5.706;2022-12-18T16:22:54;21.50;;;9.70;;
42714;SDS011;28351;51.480;5.706;2022-12-18T16:25:27;19.63;;;8.88;;
42714;SDS011;28351;51.480;5.706;2022-12-18T16:27:53;25.15;;;10.45;;
42714;SDS011;28351;51.480;5.706;2022-12-18T16:30:24;21.27;;;8.90;;
42714;SDS011;28351;51.480;5.706;2022-12-18T16:32:53;23.00;;;9.50;;
42714;SDS011;28351;51.480;5.706;2022-12-18T16:35:19;20.88;;;9.40;;
42714;SDS011;28351;51.480;5.706;2022-12-18T16:37:54;18.13;;;8.70;;
42714;SDS011;28351;51.480;5.706;2022-12-18T16:40:19;23.40;;;9.75;;
42714;SDS011;28351;51.480;5.706;2022-12-18T16:42:46;21.58;;;9.13;;
42714;SDS011;28351;51.480;5.706;2022-12-18T16:45:14;20.65;;;9.77;;
42714;SDS011;28351;51.480;5.706;2022-12-18T16:47:42;19.15;;;9.25;;
42714;SDS011;28351;51.480;5.706;2022-12-18T16:50:08;23.83;;;10.90;;
42714;SDS011;28351;51.480;5.706;2022-12-18T16:52:34;21.27;;;9.90;;
42714;SDS011;28351;51.480;5.706;2022-12-18T16:55:00;15.23;;;7.75;;
42714;SDS011;28351;51.480;5.706;2022-12-18T16:57:26;23.58;;;9.73;;
42714;SDS011;28351;51.480;5.706;2022-12-18T16:59:52;17.77;;;7.55;;
42714;SDS011;28351;51.480;5.706;2022-12-18T17:02:20;18.92;;;9.25;;
42714;SDS011;28351;51.480;5.706;2022-12-18T17:04:52;22.15;;;9.60;;
42714;SDS011;28351;51.480;5.706;2022-12-18T17:07:21;22.73;;;10.23;;
42714;SDS011;28351;51.480;5.706;2022-12-18T17:09:47;21.63;;;9.43;;
42714;SDS011;28351;51.480;5.706;2022-12-18T17:12:14;22.63;;;9.13;;
42714;SDS011;28351;51.480;5.706;2022-12-18T17:14:40;21.13;;;9.45;;
42714;SDS011;28351;51.480;5.706;2022-12-18T17:17:26;24.20;;;10.80;;
42714;SDS011;28351;51.480;5.706;2022-12-18T17:19:54;21.10;;;10.57;;
42714;SDS011;28351;51.480;5.706;2022-12-18T17:22:22;24.45;;;10.07;;
42714;SDS011;28351;51.480;5.706;2022-12-18T17:24:48;23.58;;;10.15;;
42714;SDS011;28351;51.480;5.706;2022-12-18T17:27:14;21.00;;;9.30;;
42714;SDS011;28351;51.480;5.706;2022-12-18T17:29:39;26.38;;;10.20;;
42714;SDS011;28351;51.480;5.706;2022-12-18T17:32:10;23.58;;;10.10;;
42714;SDS011;28351;51.480;5.706;2022-12-18T17:34:36;20.45;;;10.20;;
42714;SDS011;28351;51.480;5.706;2022-12-18T17:37:01;31.33;;;11.30;;
42714;SDS011;28351;51.480;5.706;2022-12-18T17:39:27;23.80;;;10.57;;
42714;SDS011;28351;51.480;5.706;2022-12-18T17:41:57;20.17;;;10.38;;
42714;SDS011;28351;51.480;5.706;2022-12-18T17:44:23;24.27;;;10.82;;
42714;SDS011;28351;51.480;5.706;2022-12-18T17:46:49;23.80;;;10.25;;
42714;SDS011;28351;51.480;5.706;2022-12-18T17:49:23;23.73;;;9.82;;
42714;SDS011;28351;51.480;5.706;2022-12-18T17:52:01;22.75;;;10.55;;
42714;SDS011;28351;51.480;5.706;2022-12-18T17:54:28;25.27;;;10.52;;
42714;SDS011;28351;51.480;5.706;2022-12-18T17:56:53;24.25;;;9.98;;
42714;SDS011;28351;51.480;5.706;2022-12-18T17:59:20;25.13;;;9.95;;
42714;SDS011;28351;51.480;5.706;2022-12-18T18:01:46;21.58;;;10.55;;
42714;SDS011;28351;51.480;5.706;2022-12-18T18:04:12;21.40;;;10.07;;
42714;SDS011;28351;51.480;5.706;2022-12-18T18:06:38;21.38;;;10.02;;
42714;SDS011;28351;51.480;5.706;2022-12-18T18:09:04;24.45;;;10.48;;
42714;SDS011;28351;51.480;5.706;2022-12-18T18:11:30;22.33;;;9.30;;
42714;SDS011;28351;51.480;5.706;2022-12-18T18:14:15;19.85;;;8.95;;
42714;SDS011;28351;51.480;5.706;2022-12-18T18:16:44;21.92;;;10.40;;
42714;SDS011;28351;51.480;5.706;2022-12-18T18:19:14;21.58;;;10.10;;
42714;SDS011;28351;51.480;5.706;2022-12-18T18:21:42;29.63;;;10.32;;
42714;SDS011;28351;51.480;5.706;2022-12-18T18:24:10;23.83;;;10.90;;
42714;SDS011;28351;51.480;5.706;2022-12-18T18:26:37;24.07;;;10.50;;
42714;SDS011;28351;51.480;5.706;2022-12-18T18:29:04;21.65;;;9.88;;
42714;SDS011;28351;51.480;5.706;2022-12-18T18:31:34;19.45;;;9.23;;
42714;SDS011;28351;51.480;5.706;2022-12-18T18:34:02;28.00;;;10.87;;
42714;SDS011;28351;51.480;5.706;2022-12-18T18:36:27;28.85;;;12.10;;
42714;SDS011;28351;51.480;5.706;2022-12-18T18:38:54;25.13;;;11.60;;